Station: ROBE AIRFIELD

  Atmospheric Gas Attenuation - ITU Rec 676-11   --------------- db/100km ---------------
Date Time Temp RH % AH g/m3 Dew Point Wind Direction Speed kph Gust kph Barometer mB Rainfall Since 9am 24GHz 47GHz 76GHz 122GHz 134GHz 241GHz
21 19:30 12.1 90 9.65 10.5 32 54 1003 3.2 21.9 27.8 44.6 117.3 114.1 393.3
21 19:20 12.2 92 9.93 10.9 30 39 1013.1 2.2 22.5 28.6 46.2 121.5 118.8 409.8
21 19:10 12.4 93 10.16 11.3 26 32 1013.1 2.2 23.0 28.9 47.1 123.9 121.8 420.1
21 19:00 11.8 93 9.79 10.7 26 41 1002.4 2 22.3 28.1 45.3 119.3 116.5 401.5
21 18:50 11.7 90 9.41 10.1 30 37 1013.1 2 21.4 27.9 44.3 116.3 112.3 386.8
21 18:40 13.4 82 9.53 10.4 33 56 1002.2 0.6 21.6 27.1 43.3 113.9 110.5 380.8
21 18:30 13.4 81 9.42 10.2 33 46 1001.9 0.6 21.4 26.9 42.8 112.7 108.9 375.5
21 18:20 13.2 82 9.42 10.2 37 50 1013.1 0.6 21.4 27.4 43.5 114.2 110.2 379.8
21 18:10 13.2 82 9.42 10.2 33 41 1013.1 0.6 21.4 27.4 43.5 114.2 110.2 379.8
21 18:00 13.2 82 9.42 10.2 33 48 1001.7 0.6 21.4 27.0 42.9 113.0 109.2 376.4
21 17:50 13.3 82 9.47 10.3 32 41 1013.1 0.6 21.5 27.5 43.6 114.6 110.8 381.7
21 17:40 13.2 85 9.76 10.7 32 35 1013.1 0.6 22.1 28.0 44.9 118.0 114.9 396.2
21 17:30 13.4 88 10.23 11.5 32 43 1001.6 0.6 23.1 28.3 46.2 121.7 120.1 414.4
21 17:20 13.9 84 10.07 11.2 28 37 1013.1 0.6 22.7 28.3 45.8 120.5 118.2 407.7
21 17:10 14.4 76 9.39 10.2 28 35 1013.1 0.2 21.2 27.0 42.7 112.2 108.1 372.6
21 17:00 14.3 77 9.46 10.3 28 44 1001.1 0.2 21.4 26.7 42.5 111.7 108.1 372.8
21 16:50 14.2 76 9.28 10 32 41 1013.1 0.2 21.0 26.9 42.3 111.2 106.9 368.4
21 16:40 14.4 73 9.02 9.6 30 35 1013.1 0.2 20.5 26.4 41.2 108.1 103.2 355.3
21 16:30 14.4 75 9.27 10 30 41 1001.1 0.2 21.0 26.3 41.6 109.5 105.5 363.4
21 16:20 14.7 75 9.44 10.3 33 39 1013.1 0.2 21.3 27.0 42.7 112.3 108.4 373.5
21 16:10 14.8 74 9.37 10.2 30 35 1013.1 0.2 21.2 26.8 42.4 111.4 107.3 369.8
21 16:00 14.8 72 9.12 9.8 32 48 1001.1 0.2 20.7 26.0 40.8 107.4 102.9 354.7
21 15:50 14.9 71 9.05 9.7 33 41 1013.1 0.2 20.5 26.3 41.0 107.8 102.9 354.4
21 15:40 14.9 69 8.79 9.4 32 39 1013.1 0.2 19.9 25.9 40.0 105.0 99.5 342.4
21 15:30 15.1 69 8.9 9.5 33 46 1001.2 0.2 20.2 25.6 39.8 104.6 99.7 343.3
21 15:20 15 72 9.23 10 33 39 1013.1 0.2 20.9 26.6 41.7 109.6 105.2 362.3
21 15:10 15.3 69 9.01 9.8 35 43 1013.1 0.2 20.4 26.1 40.7 106.8 101.9 350.8
21 15:00 15.7 68 9.1 9.8 35 52 1000.9 0.2 20.6 25.7 40.3 105.9 101.5 349.6
21 14:50 16 68 9.26 10.1 33 44 1013.1 0.2 20.9 26.3 41.3 108.5 104.2 359.1
21 14:40 15.8 71 9.56 10.7 37 48 1013.1 0.2 21.5 26.9 42.6 112.0 108.4 373.9
21 14:30 15.4 73 9.59 10.6 39 57 1000.8 0.2 21.6 26.6 42.4 111.6 108.3 373.5
21 14:20 14.4 75 9.27 10 48 56 1013.1 0.2 21.0 26.8 42.2 110.9 106.5 367.0
21 14:10 14.8 74 9.37 10.2 33 46 1013.1 0 21.2 26.8 42.4 111.4 107.3 369.8
21 14:00 15.6 70 9.31 10.2 44 63 1000.5 0 21.0 26.0 41.1 108.2 104.3 359.6
21 13:50 15.8 70 9.42 10.3 48 63 1013.1 0 21.2 26.6 42.1 110.5 106.6 367.4
21 13:40 16.4 66 9.21 10.2 43 54 1013.1 0 20.8 26.1 40.9 107.4 103.0 355.0
21 13:30 16.4 66 9.21 10 48 69 1000.4 0 20.8 25.6 40.3 106.1 101.9 351.4
21 13:20 15.8 65 8.75 9.2 54 72 1013.1 0 19.8 25.6 39.4 103.4 97.8 336.7
21 13:10 16.3 65 9.02 9.7 44 57 1013.1 0 20.4 25.8 40.2 105.6 100.7 346.8
21 13:00 16.2 60 8.27 8.4 52 74 1000.3 0 18.8 24.2 36.8 96.6 90.2 310.3
21 12:50 15.4 61 8.01 8.1 46 56 1013.1 0 18.3 24.5 36.7 96.2 88.8 305.2
21 12:40 16.3 56 7.77 7.5 39 52 1013.1 0 17.7 23.9 35.4 92.7 84.8 291.4
21 12:30 15.8 54 7.27 6.5 46 67 1000.5 0 16.7 22.8 33.2 87.1 78.4 268.7
21 12:20 16.3 53 7.35 6.7 37 48 1013.1 0 16.8 23.3 33.8 88.5 79.7 273.3
21 12:10 15.7 51 6.82 5.8 56 65 1013.1 0 15.7 22.6 32.1 84.0 73.9 252.7
21 12:00 15.9 53 7.18 6.3 52 67 1001 0 16.5 22.7 32.9 86.2 77.2 264.6
21 11:50 16.2 54 7.45 6.9 37 43 1013.1 0 17.0 23.4 34.2 89.6 81.0 277.9
21 11:40 16.4 51 7.12 6.2 46 56 1013.1 0 16.3 22.9 32.9 86.2 76.8 263.2
21 11:30 16.3 52 7.21 6.4 44 63 1001.2 0 16.5 22.6 32.8 86.1 77.2 264.6
21 11:20 15.9 54 7.31 6.8 44 50 1013.1 0 16.8 23.3 33.8 88.6 79.6 272.9
21 11:10 16.4 58 8.09 8.3 46 54 1013.1 0 18.4 24.4 36.6 95.8 88.7 304.9
21 11:00 16.1 57 7.81 7.6 41 61 1001.1 0 17.8 23.6 35.1 92.2 84.7 290.9
21 10:50 16.2 65 8.96 9.6 39 50 1013.1 0 20.2 25.8 40.0 105.1 100.0 344.5
21 10:40 15.7 62 8.3 8.6 43 48 1013.1 0 18.9 24.9 37.7 98.8 92.2 317.0
21 10:30 15.7 68 9.1 9.8 37 54 1001.6 0 20.6 25.7 40.3 106.0 101.5 349.8
21 10:20 15.7 68 9.1 9.8 35 43 1013.1 0 20.6 26.1 40.8 107.2 102.5 353.1
21 10:10 15.4 69 9.07 9.7 41 52 1013.1 0 20.5 26.2 40.9 107.3 102.5 353.1
21 10:00 15.2 70 9.09 9.8 37 52 1001.8 0 20.6 25.8 40.5 106.6 102.1 351.7
21 09:50 15 69 8.85 9.5 35 43 1013.1 0 20.1 25.9 40.2 105.5 100.1 344.8
21 09:40 14.8 72 9.12 9.8 43 46 1013.1 0 20.7 26.4 41.4 108.7 104.0 358.1
21 09:30 14.8 75 9.5 10.4 35 46 1002 0 21.5 26.6 42.4 111.6 108.1 372.5
21 09:20 14.9 77 9.81 10.9 32 37 1013.1 0 22.1 27.5 44.1 116.0 113.1 390.0
21 09:10 14.9 75 9.56 10.5 33 41 1013.1 0 21.6 27.1 43.1 113.3 109.7 378.2
21 09:00 14.7 76 9.57 10.5 37 50 1002.4 0 21.6 26.8 42.8 112.5 109.2 376.4
21 08:50 14.5 76 9.45 10.3 43 46 1013.1 2 21.4 27.1 42.9 112.7 108.8 375.0
21 08:40 14.3 77 9.46 10.3 37 48 1013.1 2 21.4 27.1 43.0 113.1 109.2 376.4
21 08:30 14.4 79 9.77 10.8 32 44 1002.8 2 22.1 27.2 43.8 115.2 112.3 387.5
21 08:20 14.4 80 9.89 11 30 37 1013.1 2 22.3 27.8 44.8 117.7 114.9 396.4
21 08:10 13.9 81 9.71 10.7 33 37 1013.1 2 22.0 27.7 44.3 116.4 113.2 390.3
21 08:00 14 82 9.89 11 32 46 1002.8 2 22.4 27.6 44.5 117.1 114.6 395.2
21 07:50 13.9 85 10.19 11.4 26 30 1013.1 2 23.0 28.5 46.3 121.8 119.8 413.5
21 07:40 13.7 84 9.95 11 32 37 1013.1 2 22.5 28.2 45.4 119.4 116.8 402.9
21 07:30 14 83 10.01 11.2 30 43 1003 2 22.6 27.8 45.0 118.5 116.2 401.0
21 07:20 13.7 80 9.47 10.3 30 39 1013.1 2 21.5 27.3 43.4 114.1 110.2 379.8
21 07:10 13.5 78 9.12 9.7 32 37 1013.1 2 20.7 26.8 42.1 110.5 105.7 364.1
21 07:00 13.6 79 9.3 10 26 41 1003.2 2 21.1 26.7 42.3 111.2 107.2 369.2
21 06:50 13.5 81 9.47 10.3 26 33 1013.1 2 21.5 27.4 43.5 114.3 110.5 380.8
21 06:40 13.1 75 8.56 8.9 24 28 1013.1 2 19.5 26.0 40.0 104.9 98.7 339.6
21 06:30 13 83 9.41 10.2 24 35 1003.1 2 21.4 27.1 43.1 113.3 109.5 377.3
21 06:20 13 80 9.07 9.6 32 37 1013.1 2 20.6 26.9 42.1 110.6 105.7 364.1
21 06:10 12.9 78 8.79 9.1 30 37 1013.1 2 20.0 26.5 41.0 107.7 102.1 351.3
21 06:00 13 75 8.51 8.7 28 43 1002.9 2 19.4 25.6 39.4 103.5 97.4 334.9
21 05:50 12.7 78 8.68 8.9 28 35 1013.1 2 19.8 26.3 40.7 106.8 100.9 347.0
21 05:40 12.7 80 8.91 9.3 32 37 1013.1 2 20.3 26.7 41.6 109.3 104.0 357.9
21 05:30 12.9 80 9.02 9.5 26 37 1002.8 2 20.5 26.5 41.5 109.1 104.3 359.2
21 05:20 13 78 8.85 9.2 28 33 1013.1 2 20.2 26.5 41.2 108.2 102.8 353.7
21 05:10 12.8 79 8.85 9.2 26 35 1013.1 2 20.2 26.6 41.3 108.5 103.0 354.6
21 04:50 13.3 78 9.01 9.5 30 33 1013.1 2 20.5 26.7 41.7 109.6 104.5 359.8
21 04:40 13.3 78 9.01 9.5 26 30 1013.1 2 20.5 26.7 41.7 109.6 104.5 359.8
21 04:30 13.3 74 8.55 8.8 22 32 1002.6 2 19.5 25.6 39.4 103.5 97.5 335.4
21 04:20 13.3 71 8.2 8.1 28 32 1013.1 2 18.8 25.4 38.4 100.8 93.7 322.1
21 04:10 13.2 71 8.15 8.2 20 26 1013.1 2 18.7 25.3 38.3 100.4 93.2 320.2
21 04:00 13.3 72 8.32 8.4 26 37 1002.6 2 19.0 25.2 38.5 101.0 94.5 324.8
21 03:50 13.1 71 8.1 8.1 28 32 1013.1 2 18.6 25.3 38.1 100.0 92.7 318.4
21 03:40 13.2 74 8.5 8.8 19 22 1013.1 2 19.4 25.9 39.7 104.2 97.8 336.4
21 03:30 13 75 8.51 8.7 22 35 1002.6 2 19.4 25.6 39.4 103.4 97.3 334.8
21 03:20 13.1 71 8.1 8.1 28 35 1013.1 2 18.6 25.3 38.1 100.0 92.7 318.4
21 03:10 13.2 72 8.27 8.4 20 28 1013.1 2 18.9 25.5 38.8 101.7 94.8 325.8
21 03:00 13.4 71 8.25 8.3 28 39 1002.8 2 18.9 25.1 38.1 100.2 93.5 321.3
21 02:50 13.4 70 8.14 8 24 28 1013.1 2 18.6 25.3 38.2 100.1 92.8 319.0

Last Refresh: 21-Sep-2020 19:46:10

Most of the information presented on this site is sourced from the Bureau of Meteorology.  Copyright in all material sourced from the Bureau of Meteorology resides with the Commonwealth of Australia.